Time;durP1;ratioP1;P1;durP2;ratioP2;P2;SDS_P1;SDS_P2;PMS_P1;PMS_P2;Temp;Humidity;BMP_temperature;BMP_pressure;BME280_temperature;BME280_humidity;BME280_pressure;Samples;Min_cycle;Max_cycle;Signal;HPM_P1;HPM_P2
2022/04/09 00:01:20;;;;;;;7.03;2.83;;;2.40;94.20;;;;;;5053315;28;20031;-82
2022/04/09 00:03:46;;;;;;;16.50;3.10;;;2.40;94.20;;;;;;5070546;28;20463;-82
2022/04/09 00:06:11;;;;;;;12.68;2.42;;;2.30;94.30;;;;;;5044212;28;20112;-82
2022/04/09 00:08:37;;;;;;;11.63;3.15;;;2.40;94.50;;;;;;5053594;28;20028;-82
2022/04/09 00:11:02;;;;;;;6.95;2.58;;;2.30;94.40;;;;;;5058325;28;20492;-82
2022/04/09 00:13:28;;;;;;;9.95;3.08;;;2.20;94.40;;;;;;5044218;28;20024;-82
2022/04/09 00:15:53;;;;;;;18.73;2.72;;;2.20;94.60;;;;;;5065739;28;20108;-82
2022/04/09 00:18:19;;;;;;;10.18;2.78;;;2.20;94.60;;;;;;5067772;28;20048;-82
2022/04/09 00:20:45;;;;;;;10.50;2.50;;;2.10;94.60;;;;;;5049686;28;20029;-81
2022/04/09 00:23:10;;;;;;;12.38;2.60;;;2.10;94.60;;;;;;5042114;28;20035;-82
2022/04/09 00:25:36;;;;;;;9.18;2.67;;;2.10;94.80;;;;;;5068626;28;20373;-82
2022/04/09 00:28:03;;;;;;;10.07;2.25;;;2.10;94.80;;;;;;5053006;28;20115;-82
2022/04/09 00:30:28;;;;;;;10.68;2.67;;;2.10;94.90;;;;;;5070226;28;20586;-82
2022/04/09 00:32:54;;;;;;;12.45;2.50;;;2.10;94.90;;;;;;5065802;28;20029;-82
2022/04/09 00:35:20;;;;;;;10.52;2.78;;;2.20;94.90;;;;;;5069065;28;20554;-82
2022/04/09 00:37:46;;;;;;;11.55;2.50;;;2.20;94.90;;;;;;5048923;28;20488;-82
2022/04/09 00:40:14;;;;;;;11.27;2.78;;;2.20;94.90;;;;;;5067453;28;20036;-83
2022/04/09 00:42:42;;;;;;;9.07;2.72;;;2.30;94.90;;;;;;5052648;28;20386;-83
2022/04/09 00:45:10;;;;;;;9.70;1.98;;;2.30;94.90;;;;;;5049299;28;20067;-82
2022/04/09 00:47:36;;;;;;;11.30;2.60;;;2.20;94.90;;;;;;5065719;28;20143;-82
2022/04/09 00:50:02;;;;;;;12.90;3.00;;;2.20;94.80;;;;;;5051435;28;20025;-82
2022/04/09 00:52:30;;;;;;;9.00;2.30;;;2.10;94.80;;;;;;5040042;28;20024;-82
2022/04/09 00:54:57;;;;;;;11.77;3.03;;;2.10;94.90;;;;;;5069518;28;20044;-82
2022/04/09 00:57:25;;;;;;;8.23;2.65;;;2.10;95.00;;;;;;5052666;28;20032;-82
2022/04/09 00:59:52;;;;;;;7.57;2.40;;;2.10;94.90;;;;;;5052617;28;20031;-82
2022/04/09 01:02:18;;;;;;;13.55;2.83;;;2.10;94.90;;;;;;5042863;28;20025;-82
2022/04/09 01:04:44;;;;;;;11.18;2.40;;;2.00;94.90;;;;;;5067088;28;20077;-82
2022/04/09 01:07:10;;;;;;;10.07;2.80;;;2.10;95.10;;;;;;5043450;28;20373;-82
2022/04/09 01:09:36;;;;;;;12.50;2.70;;;2.00;95.00;;;;;;5049064;28;20119;-82
2022/04/09 01:12:03;;;;;;;11.88;3.20;;;2.10;95.20;;;;;;5045900;28;20061;-82
2022/04/09 01:14:29;;;;;;;16.13;3.60;;;2.10;95.20;;;;;;5043104;28;20024;-82
2022/04/09 01:16:56;;;;;;;6.95;2.72;;;2.10;95.20;;;;;;5074833;28;20025;-82
2022/04/09 01:19:21;;;;;;;17.40;3.08;;;2.10;95.30;;;;;;5072769;28;20031;-82
2022/04/09 01:21:48;;;;;;;11.02;2.80;;;2.20;95.20;;;;;;5052615;28;20020;-82
2022/04/09 01:24:14;;;;;;;15.73;3.50;;;2.20;95.20;;;;;;5055911;28;20025;-82
2022/04/09 01:26:40;;;;;;;14.35;3.75;;;2.30;95.20;;;;;;5056718;28;20021;-82
2022/04/09 01:29:06;;;;;;;15.52;3.28;;;2.30;95.20;;;;;;5074897;28;20024;-82
2022/04/09 01:31:31;;;;;;;6.85;2.42;;;2.40;95.20;;;;;;5070805;28;20035;-82
2022/04/09 01:33:57;;;;;;;16.40;3.05;;;2.40;95.20;;;;;;5042387;28;20029;-82
2022/04/09 01:36:22;;;;;;;8.50;2.58;;;2.50;95.00;;;;;;5065268;28;20044;-82
2022/04/09 01:38:48;;;;;;;10.60;2.67;;;2.50;95.10;;;;;;5073588;28;20082;-82
2022/04/09 01:41:13;;;;;;;7.53;2.80;;;2.40;94.90;;;;;;5074011;28;20099;-82
2022/04/09 01:43:41;;;;;;;8.18;2.08;;;2.40;94.90;;;;;;5074485;28;20020;-82
2022/04/09 01:46:07;;;;;;;11.80;2.65;;;2.30;94.70;;;;;;5072637;28;20028;-82
2022/04/09 01:48:32;;;;;;;15.55;3.00;;;2.30;94.50;;;;;;5072818;28;20107;-82
2022/04/09 01:50:58;;;;;;;7.15;2.22;;;2.30;94.50;;;;;;5068232;28;20025;-82
2022/04/09 01:53:24;;;;;;;11.57;2.33;;;2.20;94.40;;;;;;5072611;28;20033;-83
2022/04/09 01:55:49;;;;;;;10.20;2.35;;;2.20;94.30;;;;;;5072720;28;20522;-82
2022/04/09 01:58:15;;;;;;;12.02;2.47;;;2.20;94.30;;;;;;5072215;28;20059;-82
2022/04/09 02:00:41;;;;;;;10.80;2.47;;;2.10;94.30;;;;;;5073797;28;20028;-82
2022/04/09 02:03:06;;;;;;;10.90;2.80;;;2.10;94.30;;;;;;5071568;28;20024;-82
2022/04/09 02:05:34;;;;;;;13.52;2.83;;;2.00;94.40;;;;;;5072301;28;20044;-82
2022/04/09 02:07:59;;;;;;;11.60;2.45;;;2.00;94.40;;;;;;5072169;28;20048;-82
2022/04/09 02:10:27;;;;;;;9.30;2.40;;;1.90;94.50;;;;;;5074031;28;20020;-82
2022/04/09 02:12:53;;;;;;;7.35;2.50;;;1.90;94.60;;;;;;5072916;28;20068;-82
2022/04/09 02:15:18;;;;;;;14.45;3.10;;;1.80;94.60;;;;;;5071727;28;20125;-82
2022/04/09 02:17:44;;;;;;;9.15;3.03;;;1.70;94.70;;;;;;5070595;28;20102;-82
2022/04/09 02:20:12;;;;;;;14.80;3.30;;;1.70;94.80;;;;;;5069017;28;20028;-82
2022/04/09 02:22:38;;;;;;;10.50;3.35;;;1.70;94.90;;;;;;5058545;28;20602;-82
2022/04/09 02:25:05;;;;;;;8.00;2.92;;;1.70;94.90;;;;;;5073036;28;20033;-82
2022/04/09 02:27:31;;;;;;;12.65;3.85;;;1.60;95.00;;;;;;5073413;28;20035;-82
2022/04/09 02:29:57;;;;;;;11.70;3.33;;;1.70;95.10;;;;;;5064814;28;20028;-82
2022/04/09 02:32:24;;;;;;;9.25;3.38;;;1.60;95.30;;;;;;5072833;28;20033;-82
2022/04/09 02:34:52;;;;;;;15.07;3.75;;;1.70;95.30;;;;;;5069945;28;20086;-82
2022/04/09 02:37:17;;;;;;;8.95;3.17;;;1.60;95.30;;;;;;5054540;28;20531;-82
2022/04/09 02:39:43;;;;;;;11.93;3.55;;;1.70;95.40;;;;;;5044742;28;20111;-82
2022/04/09 02:42:09;;;;;;;11.05;3.88;;;1.70;95.40;;;;;;5045387;28;20023;-82
2022/04/09 02:44:34;;;;;;;7.30;2.65;;;1.60;95.40;;;;;;5048895;28;20442;-82
2022/04/09 02:47:00;;;;;;;7.93;3.25;;;1.60;95.40;;;;;;5054526;28;20028;-82
2022/04/09 02:49:25;;;;;;;7.53;3.25;;;1.60;95.60;;;;;;5051785;28;20032;-82
2022/04/09 02:51:51;;;;;;;9.23;3.13;;;1.50;95.50;;;;;;5054136;28;20059;-82
2022/04/09 02:54:17;;;;;;;13.40;3.38;;;1.50;95.50;;;;;;5066051;28;20033;-82
2022/04/09 02:56:44;;;;;;;15.40;4.00;;;1.50;95.60;;;;;;5066391;28;20491;-81
2022/04/09 02:59:10;;;;;;;8.27;3.65;;;1.50;95.70;;;;;;5054352;28;20029;-82
2022/04/09 03:01:35;;;;;;;9.18;3.25;;;1.50;95.70;;;;;;5054745;28;20539;-82
2022/04/09 03:04:01;;;;;;;6.78;3.20;;;1.50;95.70;;;;;;5052335;28;20144;-82
2022/04/09 03:06:27;;;;;;;14.02;3.08;;;1.50;95.80;;;;;;5052947;28;20468;-82
2022/04/09 03:08:52;;;;;;;11.63;3.42;;;1.70;95.90;;;;;;5054008;28;20078;-82
2022/04/09 03:11:18;;;;;;;10.13;3.08;;;1.70;95.90;;;;;;5072490;28;20074;-82
2022/04/09 03:13:43;;;;;;;13.63;3.00;;;1.80;95.90;;;;;;5072011;28;20410;-82
2022/04/09 03:16:09;;;;;;;10.60;3.00;;;1.90;95.80;;;;;;5071044;28;20033;-82
2022/04/09 03:18:34;;;;;;;9.73;2.80;;;1.80;95.70;;;;;;5050841;28;20051;-82
2022/04/09 03:21:00;;;;;;;7.72;2.47;;;1.80;95.80;;;;;;5065406;28;20036;-82
2022/04/09 03:23:25;;;;;;;9.77;2.92;;;1.80;95.80;;;;;;5071458;28;20012;-82
2022/04/09 03:25:51;;;;;;;10.45;3.20;;;1.80;95.80;;;;;;5054564;28;20063;-82
2022/04/09 03:28:16;;;;;;;12.65;2.80;;;1.80;95.80;;;;;;5054200;28;20089;-82
2022/04/09 03:30:44;;;;;;;14.68;3.15;;;1.80;95.80;;;;;;5052737;28;20031;-82
2022/04/09 03:33:09;;;;;;;6.47;2.42;;;1.80;95.80;;;;;;5070681;28;20023;-82
2022/04/09 03:35:35;;;;;;;6.80;3.25;;;1.80;95.80;;;;;;5062499;28;20492;-82
2022/04/09 03:38:02;;;;;;;12.20;2.97;;;1.70;95.70;;;;;;5034838;28;20032;-82
2022/04/09 03:40:27;;;;;;;8.23;2.70;;;1.70;95.60;;;;;;5054337;28;20439;-82
2022/04/09 03:42:53;;;;;;;12.82;3.03;;;1.70;95.70;;;;;;5054010;28;20017;-82
2022/04/09 03:45:18;;;;;;;11.88;3.03;;;1.60;95.60;;;;;;5069996;28;20028;-82
2022/04/09 03:47:44;;;;;;;6.40;2.63;;;1.60;95.70;;;;;;5048937;28;20020;-82
2022/04/09 03:50:09;;;;;;;14.57;3.22;;;1.50;95.60;;;;;;5052520;28;20438;-82
2022/04/09 03:52:35;;;;;;;19.00;3.25;;;1.50;95.70;;;;;;5053467;28;20404;-82
2022/04/09 03:55:01;;;;;;;14.10;3.47;;;1.50;95.70;;;;;;5066381;28;20413;-82
2022/04/09 03:57:26;;;;;;;10.27;2.97;;;1.50;95.80;;;;;;5072380;28;20035;-82
2022/04/09 03:59:55;;;;;;;9.07;2.78;;;1.50;95.70;;;;;;5053802;28;20024;-82
2022/04/09 04:02:22;;;;;;;16.85;2.85;;;1.50;95.80;;;;;;5054444;28;20040;-82
2022/04/09 04:04:47;;;;;;;10.73;2.80;;;1.50;95.80;;;;;;5060540;28;20029;-82
2022/04/09 04:07:13;;;;;;;8.40;3.25;;;1.40;95.70;;;;;;5071146;28;20388;-82
2022/04/09 04:09:39;;;;;;;14.27;3.22;;;1.30;95.80;;;;;;5071855;28;20063;-82
2022/04/09 04:12:05;;;;;;;9.82;2.85;;;1.40;95.90;;;;;;5054203;28;20089;-82
2022/04/09 04:14:30;;;;;;;13.10;3.10;;;1.40;95.90;;;;;;5052151;28;20119;-81
2022/04/09 04:16:56;;;;;;;11.70;3.13;;;1.50;95.90;;;;;;5071916;28;20158;-81
2022/04/09 04:19:22;;;;;;;10.00;2.67;;;1.40;95.80;;;;;;5051696;28;20036;-82
2022/04/09 04:21:47;;;;;;;12.55;2.92;;;1.40;95.80;;;;;;5048155;28;20497;-82
2022/04/09 04:24:13;;;;;;;16.02;3.33;;;1.40;95.90;;;;;;5053396;28;20032;-83
2022/04/09 04:26:38;;;;;;;15.25;2.92;;;1.40;95.90;;;;;;5071816;28;20029;-82
2022/04/09 04:29:04;;;;;;;9.48;2.88;;;1.40;95.80;;;;;;5052506;28;20021;-82
2022/04/09 04:31:29;;;;;;;14.85;2.95;;;1.50;95.90;;;;;;5053265;28;20124;-82
2022/04/09 04:33:55;;;;;;;15.20;3.22;;;1.50;95.80;;;;;;5052388;28;20116;-82
2022/04/09 04:36:20;;;;;;;13.73;2.88;;;1.50;95.80;;;;;;5068989;28;20102;-82
2022/04/09 04:38:47;;;;;;;9.25;3.03;;;1.40;95.70;;;;;;5057592;28;20074;-82
2022/04/09 04:41:12;;;;;;;12.82;3.58;;;1.50;95.70;;;;;;5045413;28;20059;-82
2022/04/09 04:43:38;;;;;;;13.18;3.13;;;1.40;95.70;;;;;;5067979;28;20060;-82
2022/04/09 04:46:03;;;;;;;11.82;3.35;;;1.40;95.70;;;;;;5053183;28;20021;-82
2022/04/09 04:48:29;;;;;;;16.20;3.00;;;1.40;95.70;;;;;;5074512;28;20407;-82
2022/04/09 04:50:55;;;;;;;17.50;3.85;;;1.40;95.70;;;;;;5054828;28;20020;-82
2022/04/09 04:53:20;;;;;;;13.63;3.88;;;1.40;95.70;;;;;;5057280;28;20040;-83
2022/04/09 04:55:46;;;;;;;11.32;3.25;;;1.40;95.70;;;;;;5056835;28;20030;-82
2022/04/09 04:58:12;;;;;;;13.88;3.40;;;1.50;95.70;;;;;;5075187;28;20060;-82
2022/04/09 05:00:38;;;;;;;12.48;3.88;;;1.40;95.70;;;;;;5056695;28;20031;-82
2022/04/09 05:03:03;;;;;;;8.88;3.40;;;1.40;95.60;;;;;;5066927;28;20069;-82
2022/04/09 05:05:29;;;;;;;8.15;3.05;;;1.50;95.70;;;;;;5073072;28;20020;-81
2022/04/09 05:07:55;;;;;;;9.48;3.72;;;1.50;95.60;;;;;;5074316;28;20027;-82
2022/04/09 05:10:23;;;;;;;17.45;3.65;;;1.50;95.60;;;;;;5072956;28;20028;-82
2022/04/09 05:12:50;;;;;;;15.82;3.72;;;1.50;95.60;;;;;;5071477;28;20017;-82
2022/04/09 05:15:16;;;;;;;10.55;3.58;;;1.50;95.60;;;;;;5055351;28;20079;-82
2022/04/09 05:17:43;;;;;;;10.50;3.38;;;1.60;95.70;;;;;;5064548;28;20025;-82
2022/04/09 05:20:11;;;;;;;11.93;3.70;;;1.60;95.70;;;;;;5045662;28;20017;-82
2022/04/09 05:22:38;;;;;;;15.00;3.80;;;1.60;95.60;;;;;;5046560;28;20025;-82
2022/04/09 05:25:04;;;;;;;10.50;3.00;;;1.60;95.60;;;;;;5074257;28;20059;-83
2022/04/09 05:27:30;;;;;;;9.52;3.35;;;1.70;95.60;;;;;;5056920;28;20033;-83
2022/04/09 05:29:56;;;;;;;8.00;3.40;;;1.70;95.50;;;;;;5043705;28;20074;-82
2022/04/09 05:32:22;;;;;;;8.75;3.08;;;1.80;95.50;;;;;;5074298;28;20028;-82
2022/04/09 05:34:48;;;;;;;11.30;3.13;;;1.90;95.40;;;;;;5071616;28;20101;-83
2022/04/09 05:37:14;;;;;;;11.52;3.25;;;2.00;95.40;;;;;;5067529;28;20479;-82
2022/04/09 05:39:42;;;;;;;10.43;3.00;;;2.00;95.20;;;;;;5071302;28;20032;-82
2022/04/09 05:42:07;;;;;;;14.48;3.67;;;2.00;95.10;;;;;;5073541;28;20078;-82
2022/04/09 05:44:33;;;;;;;14.40;3.08;;;2.00;95.00;;;;;;5073521;28;20484;-82
2022/04/09 05:47:00;;;;;;;7.70;2.80;;;2.10;94.90;;;;;;5055738;28;20555;-82
2022/04/09 05:49:26;;;;;;;11.65;2.80;;;2.10;94.80;;;;;;5050284;28;20025;-83
2022/04/09 05:51:51;;;;;;;11.88;3.75;;;2.10;94.70;;;;;;5067480;28;20020;-82
2022/04/09 05:54:17;;;;;;;11.10;3.40;;;2.20;94.70;;;;;;5055124;28;20032;-83
2022/04/09 05:56:42;;;;;;;11.70;2.67;;;2.30;94.60;;;;;;5073467;28;20115;-83
2022/04/09 05:59:08;;;;;;;9.43;2.75;;;2.40;94.40;;;;;;5055390;28;20038;-83
2022/04/09 06:01:34;;;;;;;7.90;2.97;;;2.40;94.10;;;;;;5055850;28;20020;-83
2022/04/09 06:04:01;;;;;;;13.80;3.28;;;2.50;94.10;;;;;;5068385;28;20112;-83
2022/04/09 06:06:27;;;;;;;10.93;3.17;;;2.60;94.10;;;;;;5054669;28;20373;-83
2022/04/09 06:08:52;;;;;;;10.45;2.95;;;2.70;93.70;;;;;;5054519;28;20123;-82
2022/04/09 06:11:18;;;;;;;14.48;2.92;;;2.80;93.60;;;;;;5060263;28;20028;-82
2022/04/09 06:13:44;;;;;;;12.18;3.67;;;2.80;93.20;;;;;;5065848;28;20043;-82
2022/04/09 06:16:10;;;;;;;8.75;2.38;;;3.00;93.00;;;;;;5073387;28;20031;-82
2022/04/09 06:18:38;;;;;;;11.80;2.40;;;3.00;92.90;;;;;;5071935;28;20020;-83
2022/04/09 06:21:04;;;;;;;15.27;3.47;;;3.10;92.20;;;;;;5052381;28;20031;-82
2022/04/09 06:23:29;;;;;;;11.63;2.80;;;3.30;92.10;;;;;;5073277;28;20360;-82
2022/04/09 06:25:55;;;;;;;7.45;2.88;;;3.50;91.40;;;;;;5055409;28;20107;-83
2022/04/09 06:28:20;;;;;;;7.75;1.80;;;3.50;90.90;;;;;;5054440;28;20123;-84
2022/04/09 06:30:46;;;;;;;10.45;2.60;;;3.50;90.90;;;;;;5055083;28;20140;-82
2022/04/09 06:33:11;;;;;;;7.18;2.50;;;3.50;90.60;;;;;;5054480;28;20029;-83
2022/04/09 06:35:37;;;;;;;8.30;2.25;;;3.50;90.60;;;;;;5057816;28;20048;-83
2022/04/09 06:38:02;;;;;;;9.02;2.17;;;3.60;90.50;;;;;;5058904;28;20051;-83
2022/04/09 06:40:28;;;;;;;7.68;2.60;;;3.50;89.70;;;;;;5072179;28;20019;-83
2022/04/09 06:42:54;;;;;;;11.07;2.33;;;3.50;90.00;;;;;;5073357;28;20100;-82
2022/04/09 06:45:20;;;;;;;8.45;2.53;;;3.50;90.20;;;;;;5079546;28;20024;-83
2022/04/09 06:47:47;;;;;;;6.55;2.03;;;3.70;90.40;;;;;;5066485;28;20534;-82
2022/04/09 06:50:13;;;;;;;8.68;1.90;;;3.80;89.70;;;;;;5061869;28;20071;-82
2022/04/09 06:52:40;;;;;;;6.80;2.33;;;4.10;89.40;;;;;;5066417;28;20032;-83
2022/04/09 06:55:07;;;;;;;7.68;2.20;;;4.20;88.90;;;;;;5068656;28;20028;-82
2022/04/09 06:57:33;;;;;;;8.05;2.03;;;4.40;88.10;;;;;;5058993;28;20024;-82
2022/04/09 07:00:00;;;;;;;9.45;2.17;;;4.60;87.60;;;;;;5072657;28;20411;-82
2022/04/09 07:02:25;;;;;;;13.30;1.70;;;4.80;87.60;;;;;;5069209;28;20476;-82
2022/04/09 07:04:51;;;;;;;5.90;1.75;;;4.80;87.40;;;;;;5065065;28;20025;-83
2022/04/09 07:07:24;;;;;;;12.02;2.60;;;4.60;87.10;;;;;;5064275;28;20027;-83
2022/04/09 07:09:50;;;;;;;9.77;2.00;;;4.60;87.10;;;;;;5067249;28;20094;-82
2022/04/09 07:12:16;;;;;;;6.15;2.53;;;4.70;87.70;;;;;;5073597;28;20024;-82
2022/04/09 07:14:42;;;;;;;5.63;1.30;;;4.60;87.60;;;;;;5088633;28;20032;-82
2022/04/09 07:17:08;;;;;;;6.78;1.40;;;4.50;87.20;;;;;;5070856;28;20565;-82
2022/04/09 07:19:34;;;;;;;7.50;1.80;;;4.60;87.50;;;;;;5067330;28;20028;-82
2022/04/09 07:21:59;;;;;;;3.45;1.05;;;4.50;87.90;;;;;;5071865;28;20075;-83
2022/04/09 07:24:25;;;;;;;2.92;1.15;;;4.50;87.30;;;;;;5071535;28;20025;-83
2022/04/09 07:26:51;;;;;;;6.45;1.35;;;4.60;87.30;;;;;;5070665;28;20032;-83
2022/04/09 07:29:17;;;;;;;4.97;1.10;;;4.60;87.30;;;;;;5069849;28;20025;-82
2022/04/09 07:31:42;;;;;;;3.25;1.40;;;4.70;87.30;;;;;;5070861;28;20036;-82
2022/04/09 07:34:08;;;;;;;6.38;1.63;;;4.80;87.30;;;;;;5067987;28;20039;-83
2022/04/09 07:36:33;;;;;;;7.68;1.60;;;4.80;87.10;;;;;;5069664;28;20063;-82
2022/04/09 07:38:59;;;;;;;5.97;1.80;;;4.80;87.10;;;;;;5071284;28;20056;-82
2022/04/09 07:41:24;;;;;;;11.55;1.90;;;4.90;87.20;;;;;;5072114;28;20116;-82
2022/04/09 07:43:50;;;;;;;5.30;1.48;;;5.10;86.20;;;;;;5071532;28;20506;-82
2022/04/09 07:46:15;;;;;;;5.55;1.35;;;5.10;85.80;;;;;;5050887;28;20040;-82
2022/04/09 07:48:41;;;;;;;6.30;1.23;;;5.20;85.30;;;;;;5051484;28;20795;-82
2022/04/09 07:51:07;;;;;;;7.63;1.83;;;5.30;85.40;;;;;;5046824;28;20161;-82
2022/04/09 07:53:32;;;;;;;4.82;1.25;;;5.50;85.80;;;;;;5053104;28;20503;-82
2022/04/09 07:55:58;;;;;;;6.43;1.92;;;5.40;84.70;;;;;;5070631;28;20020;-82
2022/04/09 07:58:23;;;;;;;10.48;1.40;;;5.50;85.20;;;;;;5058794;28;20029;-82
2022/04/09 08:00:49;;;;;;;7.20;1.58;;;5.60;85.10;;;;;;5071000;28;20098;-82
2022/04/09 08:03:15;;;;;;;5.65;1.63;;;5.50;84.90;;;;;;5049715;28;20543;-82
2022/04/09 08:05:41;;;;;;;4.93;1.08;;;5.40;84.70;;;;;;5041069;28;20387;-82
2022/04/09 08:08:07;;;;;;;3.30;1.10;;;5.30;85.10;;;;;;5051296;28;20033;-83
2022/04/09 08:10:33;;;;;;;7.57;1.60;;;5.30;85.60;;;;;;5075327;28;20024;-83
2022/04/09 08:12:59;;;;;;;5.45;1.40;;;5.10;85.50;;;;;;5044151;28;20017;-83
2022/04/09 08:15:25;;;;;;;3.92;1.23;;;5.10;86.40;;;;;;5070031;28;20036;-83
2022/04/09 08:17:54;;;;;;;3.30;1.00;;;4.80;85.90;;;;;;5070265;28;20099;-83
2022/04/09 08:20:20;;;;;;;6.15;1.60;;;4.50;87.60;;;;;;5051672;28;20082;-83
2022/04/09 08:22:47;;;;;;;6.63;1.92;;;4.10;89.80;;;;;;5070249;28;20465;-83
2022/04/09 08:25:13;;;;;;;4.13;1.98;;;3.90;90.70;;;;;;5057521;28;20027;-83
2022/04/09 08:27:38;;;;;;;4.63;1.33;;;3.90;91.10;;;;;;5070248;28;20036;-83
2022/04/09 08:30:06;;;;;;;4.22;1.52;;;3.80;91.60;;;;;;5050950;28;20032;-84
2022/04/09 08:32:32;;;;;;;2.65;1.13;;;3.90;92.00;;;;;;5071187;28;20035;-83
2022/04/09 08:34:58;;;;;;;6.38;1.50;;;4.10;92.10;;;;;;5051653;28;20028;-82
2022/04/09 08:37:24;;;;;;;8.32;1.60;;;4.60;92.40;;;;;;5069824;28;20025;-83
2022/04/09 08:39:50;;;;;;;5.82;1.42;;;4.80;92.00;;;;;;5071477;28;20100;-83
2022/04/09 08:42:16;;;;;;;3.03;1.35;;;4.90;90.90;;;;;;5070933;28;20027;-82
2022/04/09 08:44:42;;;;;;;4.45;1.80;;;5.30;91.00;;;;;;5058969;28;20024;-83
2022/04/09 08:47:11;;;;;;;6.13;1.77;;;5.60;91.00;;;;;;5053668;28;20025;-83
2022/04/09 08:49:42;;;;;;;6.50;1.80;;;5.80;89.80;;;;;;5069166;28;20488;-83
2022/04/09 08:52:08;;;;;;;4.72;1.30;;;6.20;89.80;;;;;;5052169;28;20131;-84
2022/04/09 08:54:36;;;;;;;5.60;1.38;;;6.50;88.20;;;;;;5070902;28;20099;-84
2022/04/09 08:57:02;;;;;;;5.35;1.52;;;6.60;87.20;;;;;;5071288;28;20370;-84
2022/04/09 08:59:31;;;;;;;5.95;1.48;;;6.40;85.50;;;;;;5069809;28;20074;-84
2022/04/09 09:01:58;;;;;;;3.50;1.15;;;6.10;86.30;;;;;;5064119;28;20094;-84
2022/04/09 09:04:23;;;;;;;3.47;1.00;;;6.00;87.30;;;;;;5051110;28;20027;-84
2022/04/09 09:06:49;;;;;;;4.57;1.00;;;6.00;88.00;;;;;;5070827;28;20520;-84
2022/04/09 09:09:44;;;;;;;4.82;1.40;;;5.70;85.80;;;;;;5065020;28;20039;-84
2022/04/09 09:12:12;;;;;;;2.33;0.90;;;5.80;87.60;;;;;;5035205;28;20032;-83
2022/04/09 09:14:43;;;;;;;2.45;1.17;;;5.60;86.50;;;;;;5070963;28;20021;-84
2022/04/09 09:17:09;;;;;;;5.30;0.70;;;5.70;86.60;;;;;;5069595;28;20029;-84
2022/04/09 09:19:42;;;;;;;2.75;0.75;;;6.00;86.80;;;;;;5075954;28;20082;-84
2022/04/09 09:22:08;;;;;;;2.35;0.80;;;6.20;85.90;;;;;;5053039;28;20400;-84
2022/04/09 09:24:33;;;;;;;4.00;0.90;;;6.50;84.70;;;;;;5053144;28;20024;-84
2022/04/09 09:27:01;;;;;;;2.67;0.65;;;6.50;83.70;;;;;;5052928;28;20073;-84
2022/04/09 09:29:29;;;;;;;3.70;0.70;;;6.30;83.40;;;;;;5052850;28;20257;-84
2022/04/09 09:31:59;;;;;;;3.92;0.70;;;6.10;83.20;;;;;;5053167;28;20036;-84
2022/04/09 09:34:25;;;;;;;2.13;0.60;;;6.10;85.50;;;;;;5070853;28;20388;-83
2022/04/09 09:36:51;;;;;;;3.08;0.82;;;6.10;85.20;;;;;;5073870;28;20044;-84
2022/04/09 09:39:20;;;;;;;1.13;0.45;;;6.10;85.60;;;;;;5075411;28;20040;-84
2022/04/09 09:41:58;;;;;;;3.60;0.80;;;6.10;85.20;;;;;;5057006;28;20020;-83
2022/04/09 09:44:26;;;;;;;4.25;0.75;;;5.70;86.20;;;;;;5055759;28;20411;-84
2022/04/09 09:46:53;;;;;;;1.75;0.65;;;5.20;87.30;;;;;;5056819;28;20032;-84
2022/04/09 09:49:21;;;;;;;4.40;0.88;;;4.80;89.00;;;;;;5051384;28;20365;-84
2022/04/09 09:52:06;;;;;;;3.33;0.90;;;4.60;89.60;;;;;;5041315;28;20166;-84
2022/04/09 09:54:32;;;;;;;2.33;0.82;;;4.60;90.10;;;;;;5074660;28;20055;-84
2022/04/09 09:56:59;;;;;;;6.28;0.98;;;4.50;90.50;;;;;;5071344;28;20025;-84
2022/04/09 09:59:27;;;;;;;2.65;1.00;;;4.20;90.50;;;;;;5038046;28;20017;-84
2022/04/09 10:01:54;;;;;;;1.60;0.82;;;3.90;90.20;;;;;;5055815;28;20017;-84
2022/04/09 10:04:20;;;;;;;3.13;0.90;;;3.80;91.00;;;;;;5054590;28;20062;-84
2022/04/09 10:06:45;;;;;;;5.90;1.00;;;3.80;91.50;;;;;;5056599;28;20103;-84
2022/04/09 10:09:16;;;;;;;3.40;0.93;;;3.80;92.00;;;;;;5053466;28;20174;-84
2022/04/09 10:11:49;;;;;;;4.50;0.85;;;3.70;92.50;;;;;;5084358;28;20020;-84
2022/04/09 10:14:21;;;;;;;5.30;1.30;;;3.90;92.50;;;;;;5068788;28;20435;-84
2022/04/09 10:16:50;;;;;;;5.28;1.55;;;4.40;92.70;;;;;;5071403;28;20547;-84
2022/04/09 10:19:17;;;;;;;5.57;1.23;;;4.60;92.60;;;;;;5071511;28;20432;-84
2022/04/09 10:21:46;;;;;;;11.18;1.95;;;4.90;92.70;;;;;;5072674;28;20029;-84
2022/04/09 10:24:20;;;;;;;6.20;1.88;;;5.40;92.80;;;;;;5054796;28;20048;-84
2022/04/09 10:26:46;;;;;;;5.60;1.55;;;5.50;91.00;;;;;;5055899;28;20021;-84
2022/04/09 10:29:11;;;;;;;5.78;1.13;;;5.80;89.70;;;;;;5055166;28;20025;-84
2022/04/09 10:31:39;;;;;;;3.45;1.00;;;6.10;89.50;;;;;;5055356;28;20426;-84
2022/04/09 10:34:07;;;;;;;7.97;0.90;;;6.20;88.50;;;;;;5053599;28;20024;-84
2022/04/09 10:36:45;;;;;;;6.68;1.35;;;6.10;87.80;;;;;;5066827;28;20069;-85
2022/04/09 10:39:36;;;;;;;4.88;1.52;;;6.40;87.30;;;;;;5069353;28;20063;-84
2022/04/09 10:42:02;;;;;;;2.53;0.80;;;6.00;86.20;;;;;;5066471;28;20029;-84
2022/04/09 10:44:44;;;;;;;6.85;1.45;;;5.80;88.20;;;;;;5071523;28;20066;-84
2022/04/09 10:47:13;;;;;;;3.35;1.08;;;5.50;89.50;;;;;;5072250;28;20037;-84
2022/04/09 10:49:38;;;;;;;1.88;0.80;;;5.10;89.90;;;;;;5069102;28;20055;-84
2022/04/09 10:52:06;;;;;;;6.28;1.40;;;5.20;90.30;;;;;;5062743;28;20114;-83
2022/04/09 10:54:33;;;;;;;4.47;0.93;;;5.60;90.50;;;;;;5071196;28;20033;-84
2022/04/09 10:57:21;;;;;;;2.38;0.90;;;5.90;90.80;;;;;;5072716;28;20476;-84
2022/04/09 10:59:56;;;;;;;2.47;0.75;;;6.00;89.80;;;;;;5069776;28;20027;-84
2022/04/09 11:02:23;;;;;;;4.40;0.95;;;6.40;88.70;;;;;;5071045;28;20040;-84
2022/04/09 11:04:48;;;;;;;6.78;0.90;;;6.40;86.50;;;;;;5065877;28;20055;-84
2022/04/09 11:07:19;;;;;;;3.97;0.80;;;6.60;85.60;;;;;;5066220;28;20064;-84
2022/04/09 11:09:56;;;;;;;4.85;1.10;;;7.00;84.90;;;;;;5061772;28;20162;-85
2022/04/09 11:12:27;;;;;;;5.45;1.15;;;7.10;84.80;;;;;;5091281;28;20032;-85
2022/04/09 11:14:57;;;;;;;5.00;0.95;;;7.40;84.20;;;;;;5071766;28;20052;-84
2022/04/09 11:17:45;;;;;;;5.78;1.38;;;7.60;83.10;;;;;;5069961;28;20115;-85
2022/04/09 11:20:15;;;;;;;5.68;1.45;;;7.50;83.90;;;;;;5070496;28;20056;-84
2022/04/09 11:22:50;;;;;;;6.53;1.30;;;7.60;81.20;;;;;;5056542;28;20547;-87
2022/04/09 11:25:27;;;;;;;7.78;1.75;;;7.80;82.10;;;;;;5070184;28;20020;-85
2022/04/09 11:28:04;;;;;;;6.63;1.33;;;7.90;80.70;;;;;;5071156;28;20517;-84
2022/04/09 11:30:29;;;;;;;6.70;1.38;;;7.80;81.90;;;;;;5070385;28;20032;-84
2022/04/09 11:32:55;;;;;;;8.00;1.08;;;7.30;82.10;;;;;;5067115;28;20024;-85
2022/04/09 11:35:24;;;;;;;10.30;1.52;;;7.30;82.60;;;;;;5084984;28;20131;-85
2022/04/09 11:37:51;;;;;;;7.90;1.77;;;7.20;82.50;;;;;;5071322;28;20107;-85
2022/04/09 11:40:19;;;;;;;5.97;1.20;;;7.90;83.40;;;;;;5072020;28;20024;-85
2022/04/09 11:42:55;;;;;;;3.38;0.70;;;8.00;79.80;;;;;;5074650;28;20029;-85
2022/04/09 11:45:28;;;;;;;7.25;0.98;;;7.70;77.60;;;;;;5070293;28;20029;-85
2022/04/09 11:47:58;;;;;;;4.95;0.90;;;7.80;77.20;;;;;;5069349;28;20028;-84
2022/04/09 11:50:25;;;;;;;6.25;1.00;;;8.10;72.70;;;;;;5065903;28;20021;-85
2022/04/09 11:52:51;;;;;;;3.20;0.68;;;8.80;72.40;;;;;;5069961;28;20495;-84
2022/04/09 11:55:18;;;;;;;6.72;0.90;;;8.50;71.90;;;;;;5071372;28;20020;-85
2022/04/09 11:57:51;;;;;;;1.52;0.63;;;8.00;69.30;;;;;;5070397;28;20032;-84
2022/04/09 12:00:19;;;;;;;3.88;0.73;;;7.80;68.40;;;;;;5063159;28;20467;-85
2022/04/09 12:02:45;;;;;;;4.55;0.60;;;8.20;69.70;;;;;;5069494;28;20024;-84
2022/04/09 12:05:11;;;;;;;3.20;0.63;;;8.60;68.80;;;;;;5056510;28;20047;-84
2022/04/09 12:07:45;;;;;;;4.18;1.23;;;9.10;64.90;;;;;;5060652;28;20365;-85
2022/04/09 12:10:23;;;;;;;2.97;0.70;;;9.20;63.70;;;;;;5066118;28;20063;-85
2022/04/09 12:12:56;;;;;;;4.18;0.80;;;9.80;64.10;;;;;;5067729;28;20064;-85
2022/04/09 12:15:32;;;;;;;4.53;1.05;;;9.70;65.30;;;;;;5069755;28;20043;-85
2022/04/09 12:17:59;;;;;;;3.35;0.80;;;9.00;66.00;;;;;;5070043;28;20110;-85
2022/04/09 12:20:32;;;;;;;3.88;0.95;;;8.30;66.50;;;;;;5070363;28;20337;-84
2022/04/09 12:22:58;;;;;;;3.42;0.70;;;8.10;65.50;;;;;;5063764;28;20105;-84
2022/04/09 12:25:42;;;;;;;5.45;1.30;;;8.40;66.30;;;;;;5060371;28;20024;-85
2022/04/09 12:28:24;;;;;;;4.30;1.10;;;8.40;64.80;;;;;;5070584;28;20627;-84
2022/04/09 12:30:53;;;;;;;6.05;1.30;;;8.00;65.00;;;;;;5070147;28;20500;-85
2022/04/09 12:33:20;;;;;;;6.63;1.40;;;8.30;63.70;;;;;;5064803;28;20039;-85
2022/04/09 12:35:46;;;;;;;9.50;1.73;;;8.10;64.20;;;;;;5067942;28;20459;-85
2022/04/09 12:38:34;;;;;;;4.45;1.20;;;8.80;63.20;;;;;;5052725;28;20021;-85
2022/04/09 12:41:05;;;;;;;5.78;1.70;;;9.60;61.50;;;;;;5052544;28;20021;-85
2022/04/09 12:43:40;;;;;;;11.70;1.42;;;9.60;60.60;;;;;;5053138;28;20035;-85
2022/04/09 12:46:13;;;;;;;10.00;1.98;;;9.80;60.60;;;;;;5052622;28;20035;-85
2022/04/09 12:48:40;;;;;;;9.73;1.33;;;9.30;61.30;;;;;;5070291;28;20036;-85
2022/04/09 12:51:06;;;;;;;8.50;1.55;;;8.80;62.20;;;;;;5042105;28;20025;-85
2022/04/09 12:53:31;;;;;;;9.18;1.75;;;8.50;62.90;;;;;;5050029;28;20028;-84